sensor_id;sensor_type;location;lat;lon;timestamp;pressure;altitude;pressure_sealevel;temperature
28803;BMP280;15949;55.656;37.422;2023-03-18T00:04:24;101065.25;;;-3.39
28803;BMP280;15949;55.656;37.422;2023-03-18T00:09:30;101069.75;;;-3.41
28803;BMP280;15949;55.656;37.422;2023-03-18T00:14:38;101061.47;;;-3.49
28803;BMP280;15949;55.656;37.422;2023-03-18T00:19:44;101069.50;;;-3.52
28803;BMP280;15949;55.656;37.422;2023-03-18T00:24:49;101071.69;;;-3.49
28803;BMP280;15949;55.656;37.422;2023-03-18T00:29:55;101072.06;;;-3.52
28803;BMP280;15949;55.656;37.422;2023-03-18T00:35:01;101072.41;;;-3.55
28803;BMP280;15949;55.656;37.422;2023-03-18T00:40:10;101081.84;;;-3.56
28803;BMP280;15949;55.656;37.422;2023-03-18T00:45:22;101074.78;;;-3.61
28803;BMP280;15949;55.656;37.422;2023-03-18T00:50:28;101081.59;;;-3.68
28803;BMP280;15949;55.656;37.422;2023-03-18T00:55:34;101085.72;;;-3.67
28803;BMP280;15949;55.656;37.422;2023-03-18T01:00:40;101096.47;;;-3.71
28803;BMP280;15949;55.656;37.422;2023-03-18T01:05:45;101089.00;;;-3.73
28803;BMP280;15949;55.656;37.422;2023-03-18T01:10:51;101092.31;;;-3.79
28803;BMP280;15949;55.656;37.422;2023-03-18T01:15:57;101097.63;;;-3.74
28803;BMP280;15949;55.656;37.422;2023-03-18T01:21:03;101107.63;;;-3.72
28803;BMP280;15949;55.656;37.422;2023-03-18T01:26:09;101103.47;;;-3.80
28803;BMP280;15949;55.656;37.422;2023-03-18T01:31:15;101106.34;;;-3.89
28803;BMP280;15949;55.656;37.422;2023-03-18T01:36:21;101113.91;;;-4.03
28803;BMP280;15949;55.656;37.422;2023-03-18T01:41:27;101122.44;;;-4.10
28803;BMP280;15949;55.656;37.422;2023-03-18T01:46:39;101120.88;;;-4.11
28803;BMP280;15949;55.656;37.422;2023-03-18T01:51:58;101132.31;;;-4.00
28803;BMP280;15949;55.656;37.422;2023-03-18T01:57:04;101136.03;;;-4.03
28803;BMP280;15949;55.656;37.422;2023-03-18T02:02:13;101137.59;;;-4.02
28803;BMP280;15949;55.656;37.422;2023-03-18T02:07:23;101153.47;;;-4.00
28803;BMP280;15949;55.656;37.422;2023-03-18T02:12:31;101158.13;;;-4.04
28803;BMP280;15949;55.656;37.422;2023-03-18T02:17:43;101148.78;;;-4.18
28803;BMP280;15949;55.656;37.422;2023-03-18T02:22:54;101162.88;;;-4.22
28803;BMP280;15949;55.656;37.422;2023-03-18T02:28:06;101164.88;;;-4.17
28803;BMP280;15949;55.656;37.422;2023-03-18T02:33:15;101170.69;;;-4.23
28803;BMP280;15949;55.656;37.422;2023-03-18T02:38:22;101172.38;;;-4.30
28803;BMP280;15949;55.656;37.422;2023-03-18T02:43:30;101179.22;;;-4.31
28803;BMP280;15949;55.656;37.422;2023-03-18T02:48:41;101186.03;;;-4.38
28803;BMP280;15949;55.656;37.422;2023-03-18T02:53:48;101192.63;;;-4.43
28803;BMP280;15949;55.656;37.422;2023-03-18T02:58:54;101191.53;;;-4.56
28803;BMP280;15949;55.656;37.422;2023-03-18T03:04:01;101190.28;;;-4.60
28803;BMP280;15949;55.656;37.422;2023-03-18T03:09:09;101206.25;;;-4.66
28803;BMP280;15949;55.656;37.422;2023-03-18T03:14:15;101202.38;;;-4.62
28803;BMP280;15949;55.656;37.422;2023-03-18T03:19:21;101206.59;;;-4.54
28803;BMP280;15949;55.656;37.422;2023-03-18T03:24:27;101202.53;;;-4.49
28803;BMP280;15949;55.656;37.422;2023-03-18T03:29:32;101204.00;;;-4.39
28803;BMP280;15949;55.656;37.422;2023-03-18T03:34:38;101207.44;;;-4.32
28803;BMP280;15949;55.656;37.422;2023-03-18T03:39:43;101209.19;;;-4.33
28803;BMP280;15949;55.656;37.422;2023-03-18T03:44:49;101205.84;;;-4.33
28803;BMP280;15949;55.656;37.422;2023-03-18T03:49:55;101213.22;;;-4.38
28803;BMP280;15949;55.656;37.422;2023-03-18T03:55:02;101214.03;;;-4.38
28803;BMP280;15949;55.656;37.422;2023-03-18T04:00:12;101213.16;;;-4.45
28803;BMP280;15949;55.656;37.422;2023-03-18T04:05:20;101221.94;;;-4.48
28803;BMP280;15949;55.656;37.422;2023-03-18T04:10:28;101219.75;;;-4.51
28803;BMP280;15949;55.656;37.422;2023-03-18T04:15:33;101222.91;;;-4.49
28803;BMP280;15949;55.656;37.422;2023-03-18T04:20:39;101232.25;;;-4.34
28803;BMP280;15949;55.656;37.422;2023-03-18T04:25:45;101224.69;;;-4.28
28803;BMP280;15949;55.656;37.422;2023-03-18T04:30:51;101238.81;;;-4.25
28803;BMP280;15949;55.656;37.422;2023-03-18T04:35:57;101246.69;;;-4.20
28803;BMP280;15949;55.656;37.422;2023-03-18T04:41:03;101248.28;;;-4.19
28803;BMP280;15949;55.656;37.422;2023-03-18T04:46:08;101255.38;;;-4.15
28803;BMP280;15949;55.656;37.422;2023-03-18T04:51:15;101261.22;;;-3.99
28803;BMP280;15949;55.656;37.422;2023-03-18T04:56:20;101254.84;;;-3.89
28803;BMP280;15949;55.656;37.422;2023-03-18T05:01:26;101268.31;;;-3.74
28803;BMP280;15949;55.656;37.422;2023-03-18T05:06:32;101261.75;;;-3.62
28803;BMP280;15949;55.656;37.422;2023-03-18T05:11:38;101273.63;;;-3.47
28803;BMP280;15949;55.656;37.422;2023-03-18T05:16:43;101263.53;;;-3.34
28803;BMP280;15949;55.656;37.422;2023-03-18T05:21:49;101266.94;;;-3.21
28803;BMP280;15949;55.656;37.422;2023-03-18T05:26:55;101276.59;;;-3.09
28803;BMP280;15949;55.656;37.422;2023-03-18T05:32:01;101284.38;;;-2.96
28803;BMP280;15949;55.656;37.422;2023-03-18T05:37:10;101270.91;;;-2.84
28803;BMP280;15949;55.656;37.422;2023-03-18T05:42:16;101280.41;;;-2.64
28803;BMP280;15949;55.656;37.422;2023-03-18T05:47:22;101277.91;;;-2.51
28803;BMP280;15949;55.656;37.422;2023-03-18T05:52:28;101295.44;;;-2.35
28803;BMP280;15949;55.656;37.422;2023-03-18T05:57:33;101288.78;;;-2.23
28803;BMP280;15949;55.656;37.422;2023-03-18T06:02:39;101287.44;;;-2.06
28803;BMP280;15949;55.656;37.422;2023-03-18T06:07:45;101291.78;;;-1.87
28803;BMP280;15949;55.656;37.422;2023-03-18T06:12:52;101297.09;;;-1.75
28803;BMP280;15949;55.656;37.422;2023-03-18T06:17:59;101303.41;;;-1.51
28803;BMP280;15949;55.656;37.422;2023-03-18T06:23:05;101302.78;;;-1.27
28803;BMP280;15949;55.656;37.422;2023-03-18T06:28:12;101303.16;;;-1.10
28803;BMP280;15949;55.656;37.422;2023-03-18T06:33:17;101307.09;;;-0.95
28803;BMP280;15949;55.656;37.422;2023-03-18T06:38:23;101308.75;;;-0.69
28803;BMP280;15949;55.656;37.422;2023-03-18T06:43:29;101311.88;;;-0.60
28803;BMP280;15949;55.656;37.422;2023-03-18T06:48:35;101305.88;;;-0.41
28803;BMP280;15949;55.656;37.422;2023-03-18T06:53:44;101310.91;;;-0.28
28803;BMP280;15949;55.656;37.422;2023-03-18T06:58:50;101311.53;;;-0.01
28803;BMP280;15949;55.656;37.422;2023-03-18T07:03:58;101318.41;;;0.30
28803;BMP280;15949;55.656;37.422;2023-03-18T07:09:04;101317.81;;;0.52
28803;BMP280;15949;55.656;37.422;2023-03-18T07:14:11;101320.78;;;0.74
28803;BMP280;15949;55.656;37.422;2023-03-18T07:19:18;101323.28;;;0.99
28803;BMP280;15949;55.656;37.422;2023-03-18T07:24:25;101323.75;;;1.26
28803;BMP280;15949;55.656;37.422;2023-03-18T07:29:30;101326.41;;;1.49
28803;BMP280;15949;55.656;37.422;2023-03-18T07:34:37;101326.81;;;1.64
28803;BMP280;15949;55.656;37.422;2023-03-18T07:39:43;101327.31;;;1.84
28803;BMP280;15949;55.656;37.422;2023-03-18T07:44:48;101320.72;;;1.88
28803;BMP280;15949;55.656;37.422;2023-03-18T07:49:54;101322.31;;;2.01
28803;BMP280;15949;55.656;37.422;2023-03-18T07:55:00;101313.00;;;2.12
28803;BMP280;15949;55.656;37.422;2023-03-18T08:00:09;101315.16;;;2.49
28803;BMP280;15949;55.656;37.422;2023-03-18T08:05:15;101321.53;;;2.59
28803;BMP280;15949;55.656;37.422;2023-03-18T08:10:21;101312.97;;;2.81
28803;BMP280;15949;55.656;37.422;2023-03-18T08:15:26;101320.38;;;3.18
28803;BMP280;15949;55.656;37.422;2023-03-18T08:20:32;101320.00;;;3.26
28803;BMP280;15949;55.656;37.422;2023-03-18T08:25:38;101313.41;;;3.18
28803;BMP280;15949;55.656;37.422;2023-03-18T08:30:44;101315.41;;;3.28
28803;BMP280;15949;55.656;37.422;2023-03-18T08:35:51;101322.56;;;3.26
28803;BMP280;15949;55.656;37.422;2023-03-18T08:40:56;101318.00;;;3.28
28803;BMP280;15949;55.656;37.422;2023-03-18T08:46:02;101316.94;;;3.57
28803;BMP280;15949;55.656;37.422;2023-03-18T08:51:09;101312.41;;;3.64
28803;BMP280;15949;55.656;37.422;2023-03-18T08:56:15;101311.47;;;3.87
28803;BMP280;15949;55.656;37.422;2023-03-18T09:01:21;101306.16;;;3.93
28803;BMP280;15949;55.656;37.422;2023-03-18T09:06:27;101305.63;;;4.30
28803;BMP280;15949;55.656;37.422;2023-03-18T09:11:33;101295.44;;;4.40
28803;BMP280;15949;55.656;37.422;2023-03-18T09:16:40;101304.75;;;4.63
28803;BMP280;15949;55.656;37.422;2023-03-18T09:21:45;101302.16;;;4.63
28803;BMP280;15949;55.656;37.422;2023-03-18T09:26:51;101300.66;;;4.67
28803;BMP280;15949;55.656;37.422;2023-03-18T09:31:57;101289.28;;;4.89
28803;BMP280;15949;55.656;37.422;2023-03-18T09:37:02;101290.56;;;5.13
28803;BMP280;15949;55.656;37.422;2023-03-18T09:42:30;101287.59;;;5.32
28803;BMP280;15949;55.656;37.422;2023-03-18T09:48:00;101279.72;;;5.48
28803;BMP280;15949;55.656;37.422;2023-03-18T09:53:21;101266.84;;;5.58
28803;BMP280;15949;55.656;37.422;2023-03-18T10:09:22;101262.03;;;5.72
28803;BMP280;15949;55.656;37.422;2023-03-18T10:14:34;101251.84;;;5.97
28803;BMP280;15949;55.656;37.422;2023-03-18T10:19:59;101250.00;;;5.93
28803;BMP280;15949;55.656;37.422;2023-03-18T10:25:48;101252.72;;;5.66
28803;BMP280;15949;55.656;37.422;2023-03-18T10:41:47;101220.97;;;6.83
28803;BMP280;15949;55.656;37.422;2023-03-18T10:46:58;101218.13;;;7.05
28803;BMP280;15949;55.656;37.422;2023-03-18T10:52:30;101211.63;;;6.67
28803;BMP280;15949;55.656;37.422;2023-03-18T10:57:38;101209.53;;;6.44
28803;BMP280;15949;55.656;37.422;2023-03-18T11:02:43;101210.09;;;6.61
28803;BMP280;15949;55.656;37.422;2023-03-18T11:08:04;101213.16;;;6.53
28803;BMP280;15949;55.656;37.422;2023-03-18T11:13:16;101211.09;;;6.50
28803;BMP280;15949;55.656;37.422;2023-03-18T11:18:24;101205.41;;;6.93
28803;BMP280;15949;55.656;37.422;2023-03-18T11:23:34;101200.50;;;6.76
28803;BMP280;15949;55.656;37.422;2023-03-18T11:29:04;101196.59;;;6.94
28803;BMP280;15949;55.656;37.422;2023-03-18T11:34:16;101192.47;;;6.63
28803;BMP280;15949;55.656;37.422;2023-03-18T11:39:24;101184.94;;;6.87
28803;BMP280;15949;55.656;37.422;2023-03-18T11:44:32;101185.47;;;6.89
28803;BMP280;15949;55.656;37.422;2023-03-18T11:49:38;101184.94;;;6.87
28803;BMP280;15949;55.656;37.422;2023-03-18T12:00:13;101188.81;;;6.94
28803;BMP280;15949;55.656;37.422;2023-03-18T12:10:42;101181.06;;;6.94
28803;BMP280;15949;55.656;37.422;2023-03-18T12:16:25;101179.75;;;6.92
28803;BMP280;15949;55.656;37.422;2023-03-18T12:21:49;101182.59;;;6.75
28803;BMP280;15949;55.656;37.422;2023-03-18T12:27:09;101162.66;;;6.50
28803;BMP280;15949;55.656;37.422;2023-03-18T12:38:31;101156.63;;;6.14
28803;BMP280;15949;55.656;37.422;2023-03-18T12:48:29;101141.97;;;5.68
28803;BMP280;15949;55.656;37.422;2023-03-18T12:53:43;101140.06;;;5.43
28803;BMP280;15949;55.656;37.422;2023-03-18T12:59:00;101136.38;;;5.34
28803;BMP280;15949;55.656;37.422;2023-03-18T13:04:17;101132.97;;;5.29
28803;BMP280;15949;55.656;37.422;2023-03-18T13:09:37;101133.59;;;5.09
28803;BMP280;15949;55.656;37.422;2023-03-18T13:14:57;101122.31;;;4.83
28803;BMP280;15949;55.656;37.422;2023-03-18T13:20:29;101118.72;;;4.84
28803;BMP280;15949;55.656;37.422;2023-03-18T13:25:54;101116.66;;;4.81
28803;BMP280;15949;55.656;37.422;2023-03-18T13:41:48;101105.00;;;4.84
28803;BMP280;15949;55.656;37.422;2023-03-18T13:47:00;101093.41;;;4.86
28803;BMP280;15949;55.656;37.422;2023-03-18T13:52:42;101094.41;;;4.80
28803;BMP280;15949;55.656;37.422;2023-03-18T14:08:57;101086.25;;;4.62
28803;BMP280;15949;55.656;37.422;2023-03-18T14:14:04;101076.09;;;4.55
28803;BMP280;15949;55.656;37.422;2023-03-18T14:19:15;101073.31;;;4.30
28803;BMP280;15949;55.656;37.422;2023-03-18T14:24:24;101074.94;;;4.09
28803;BMP280;15949;55.656;37.422;2023-03-18T14:35:20;101068.16;;;3.60
28803;BMP280;15949;55.656;37.422;2023-03-18T14:40:40;101059.56;;;3.32
28803;BMP280;15949;55.656;37.422;2023-03-18T14:45:46;101051.56;;;2.95
28803;BMP280;15949;55.656;37.422;2023-03-18T14:51:18;101053.28;;;2.73
28803;BMP280;15949;55.656;37.422;2023-03-18T14:56:28;101049.75;;;2.63
28803;BMP280;15949;55.656;37.422;2023-03-18T15:01:36;101052.78;;;2.43
28803;BMP280;15949;55.656;37.422;2023-03-18T15:06:42;101049.84;;;2.23
28803;BMP280;15949;55.656;37.422;2023-03-18T15:11:48;101047.66;;;2.03
28803;BMP280;15949;55.656;37.422;2023-03-18T15:16:57;101053.53;;;1.87
28803;BMP280;15949;55.656;37.422;2023-03-18T15:22:04;101046.97;;;1.79
28803;BMP280;15949;55.656;37.422;2023-03-18T15:27:16;101049.34;;;1.58
28803;BMP280;15949;55.656;37.422;2023-03-18T15:32:27;101046.81;;;1.34
28803;BMP280;15949;55.656;37.422;2023-03-18T15:37:36;101039.88;;;1.12
28803;BMP280;15949;55.656;37.422;2023-03-18T15:42:45;101044.41;;;0.86
28803;BMP280;15949;55.656;37.422;2023-03-18T15:47:51;101026.38;;;0.63
28803;BMP280;15949;55.656;37.422;2023-03-18T15:53:18;101034.81;;;0.52
28803;BMP280;15949;55.656;37.422;2023-03-18T15:58:27;101036.22;;;0.36
28803;BMP280;15949;55.656;37.422;2023-03-18T16:03:38;101040.00;;;0.22
28803;BMP280;15949;55.656;37.422;2023-03-18T16:08:44;101033.78;;;0.12
28803;BMP280;15949;55.656;37.422;2023-03-18T16:13:50;101031.28;;;0.05
28803;BMP280;15949;55.656;37.422;2023-03-18T16:18:56;101040.63;;;-0.01
28803;BMP280;15949;55.656;37.422;2023-03-18T16:24:04;101036.34;;;-0.07
28803;BMP280;15949;55.656;37.422;2023-03-18T16:34:32;101036.06;;;-0.17
28803;BMP280;15949;55.656;37.422;2023-03-18T16:39:38;101026.38;;;-0.33
28803;BMP280;15949;55.656;37.422;2023-03-18T16:44:44;101021.97;;;-0.44
28803;BMP280;15949;55.656;37.422;2023-03-18T16:49:50;101029.94;;;-0.52
28803;BMP280;15949;55.656;37.422;2023-03-18T16:54:55;101022.34;;;-0.65
28803;BMP280;15949;55.656;37.422;2023-03-18T17:00:03;101023.78;;;-0.69
28803;BMP280;15949;55.656;37.422;2023-03-18T17:05:15;101018.06;;;-0.71
28803;BMP280;15949;55.656;37.422;2023-03-18T17:10:23;101021.63;;;-0.72
28803;BMP280;15949;55.656;37.422;2023-03-18T17:15:35;101009.03;;;-0.74
28803;BMP280;15949;55.656;37.422;2023-03-18T17:20:42;101014.34;;;-0.75
28803;BMP280;15949;55.656;37.422;2023-03-18T17:25:51;101002.41;;;-0.81
28803;BMP280;15949;55.656;37.422;2023-03-18T17:30:57;101011.53;;;-0.85
28803;BMP280;15949;55.656;37.422;2023-03-18T17:36:05;101006.81;;;-0.89
28803;BMP280;15949;55.656;37.422;2023-03-18T17:41:17;101008.56;;;-0.89
28803;BMP280;15949;55.656;37.422;2023-03-18T17:46:23;101013.94;;;-0.91
28803;BMP280;15949;55.656;37.422;2023-03-18T17:51:29;101013.34;;;-0.93
28803;BMP280;15949;55.656;37.422;2023-03-18T17:56:35;101027.78;;;-1.05
28803;BMP280;15949;55.656;37.422;2023-03-18T18:01:44;101025.53;;;-1.19
28803;BMP280;15949;55.656;37.422;2023-03-18T18:06:51;101028.94;;;-1.32
28803;BMP280;15949;55.656;37.422;2023-03-18T18:11:57;101028.44;;;-1.41
28803;BMP280;15949;55.656;37.422;2023-03-18T18:17:10;101018.91;;;-1.34
28803;BMP280;15949;55.656;37.422;2023-03-18T18:22:21;101021.34;;;-1.14
28803;BMP280;15949;55.656;37.422;2023-03-18T18:27:27;101017.59;;;-1.11
28803;BMP280;15949;55.656;37.422;2023-03-18T18:32:32;101011.50;;;-1.10
28803;BMP280;15949;55.656;37.422;2023-03-18T18:37:38;101010.88;;;-1.06
28803;BMP280;15949;55.656;37.422;2023-03-18T18:42:44;101008.94;;;-1.10
28803;BMP280;15949;55.656;37.422;2023-03-18T18:47:49;101000.09;;;-1.14
28803;BMP280;15949;55.656;37.422;2023-03-18T18:52:56;101000.34;;;-1.22
28803;BMP280;15949;55.656;37.422;2023-03-18T18:58:01;100991.41;;;-1.38
28803;BMP280;15949;55.656;37.422;2023-03-18T19:03:13;100999.66;;;-1.36
28803;BMP280;15949;55.656;37.422;2023-03-18T19:08:23;100992.81;;;-1.42
28803;BMP280;15949;55.656;37.422;2023-03-18T19:13:31;100987.97;;;-1.57
28803;BMP280;15949;55.656;37.422;2023-03-18T19:18:38;100988.56;;;-1.61
28803;BMP280;15949;55.656;37.422;2023-03-18T19:23:45;100971.69;;;-1.62
28803;BMP280;15949;55.656;37.422;2023-03-18T19:28:51;100980.09;;;-1.55
28803;BMP280;15949;55.656;37.422;2023-03-18T19:33:59;100976.97;;;-1.57
28803;BMP280;15949;55.656;37.422;2023-03-18T19:39:05;100978.91;;;-1.53
28803;BMP280;15949;55.656;37.422;2023-03-18T19:44:22;100968.31;;;-1.56
28803;BMP280;15949;55.656;37.422;2023-03-18T19:49:32;100963.19;;;-1.56
28803;BMP280;15949;55.656;37.422;2023-03-18T19:54:40;100958.50;;;-1.59
28803;BMP280;15949;55.656;37.422;2023-03-18T19:59:46;100949.31;;;-1.67
28803;BMP280;15949;55.656;37.422;2023-03-18T20:04:55;100953.41;;;-1.66
28803;BMP280;15949;55.656;37.422;2023-03-18T20:10:01;100950.91;;;-1.72
28803;BMP280;15949;55.656;37.422;2023-03-18T20:15:33;100945.63;;;-1.78
28803;BMP280;15949;55.656;37.422;2023-03-18T20:20:42;100938.56;;;-1.82
28803;BMP280;15949;55.656;37.422;2023-03-18T20:25:48;100931.50;;;-1.87
28803;BMP280;15949;55.656;37.422;2023-03-18T20:30:56;100928.75;;;-1.92
28803;BMP280;15949;55.656;37.422;2023-03-18T20:36:04;100918.97;;;-1.95
28803;BMP280;15949;55.656;37.422;2023-03-18T20:41:14;100920.38;;;-1.99
28803;BMP280;15949;55.656;37.422;2023-03-18T20:46:21;100922.56;;;-2.09
28803;BMP280;15949;55.656;37.422;2023-03-18T20:51:33;100918.28;;;-2.21
28803;BMP280;15949;55.656;37.422;2023-03-18T20:56:40;100921.81;;;-2.23
28803;BMP280;15949;55.656;37.422;2023-03-18T21:01:46;100915.13;;;-2.24
28803;BMP280;15949;55.656;37.422;2023-03-18T21:06:52;100921.22;;;-2.25
28803;BMP280;15949;55.656;37.422;2023-03-18T21:11:57;100921.81;;;-2.29
28803;BMP280;15949;55.656;37.422;2023-03-18T21:17:03;100921.44;;;-2.33
28803;BMP280;15949;55.656;37.422;2023-03-18T21:22:12;100910.72;;;-2.41
28803;BMP280;15949;55.656;37.422;2023-03-18T21:27:24;100912.09;;;-2.45
28803;BMP280;15949;55.656;37.422;2023-03-18T21:32:31;100906.44;;;-2.54
28803;BMP280;15949;55.656;37.422;2023-03-18T21:37:36;100906.03;;;-2.57
28803;BMP280;15949;55.656;37.422;2023-03-18T21:42:42;100899.38;;;-2.58
28803;BMP280;15949;55.656;37.422;2023-03-18T21:47:48;100898.78;;;-2.67
28803;BMP280;15949;55.656;37.422;2023-03-18T21:52:54;100900.38;;;-2.66
28803;BMP280;15949;55.656;37.422;2023-03-18T21:58:00;100887.22;;;-2.70
28803;BMP280;15949;55.656;37.422;2023-03-18T22:03:16;100907.44;;;-2.88
28803;BMP280;15949;55.656;37.422;2023-03-18T22:08:23;100900.78;;;-2.95
28803;BMP280;15949;55.656;37.422;2023-03-18T22:13:29;100887.06;;;-2.94
28803;BMP280;15949;55.656;37.422;2023-03-18T22:18:35;100892.94;;;-2.94
28803;BMP280;15949;55.656;37.422;2023-03-18T22:23:40;100888.44;;;-2.98
28803;BMP280;15949;55.656;37.422;2023-03-18T22:28:47;100878.63;;;-2.88
28803;BMP280;15949;55.656;37.422;2023-03-18T22:33:55;100874.09;;;-2.86
28803;BMP280;15949;55.656;37.422;2023-03-18T22:39:01;100879.38;;;-2.88
28803;BMP280;15949;55.656;37.422;2023-03-18T22:44:19;100877.25;;;-2.91
28803;BMP280;15949;55.656;37.422;2023-03-18T22:49:25;100874.13;;;-2.99
28803;BMP280;15949;55.656;37.422;2023-03-18T22:54:31;100873.69;;;-3.03
28803;BMP280;15949;55.656;37.422;2023-03-18T22:59:37;100875.28;;;-3.08
28803;BMP280;15949;55.656;37.422;2023-03-18T23:04:43;100866.44;;;-3.13
28803;BMP280;15949;55.656;37.422;2023-03-18T23:09:49;100864.88;;;-3.14
28803;BMP280;15949;55.656;37.422;2023-03-18T23:14:55;100855.88;;;-3.16
28803;BMP280;15949;55.656;37.422;2023-03-18T23:20:01;100851.13;;;-3.19
28803;BMP280;15949;55.656;37.422;2023-03-18T23:25:12;100841.94;;;-3.20
28803;BMP280;15949;55.656;37.422;2023-03-18T23:30:18;100850.19;;;-3.25
28803;BMP280;15949;55.656;37.422;2023-03-18T23:35:24;100851.34;;;-3.27
28803;BMP280;15949;55.656;37.422;2023-03-18T23:40:29;100837.84;;;-3.34
28803;BMP280;15949;55.656;37.422;2023-03-18T23:45:36;100839.41;;;-3.40
28803;BMP280;15949;55.656;37.422;2023-03-18T23:50:42;100830.56;;;-3.44
28803;BMP280;15949;55.656;37.422;2023-03-18T23:55:48;100821.94;;;-3.49
